Time;durP1;ratioP1;P1;durP2;ratioP2;P2;SDS_P1;SDS_P2;PMS_P1;PMS_P2;Temp;Humidity;BMP_temperature;BMP_pressure;BME280_temperature;BME280_humidity;BME280_pressure;Samples;Min_cycle;Max_cycle;Signal;HPM_P1;HPM_P2
2024/03/29 00:00:46;;;;;;;11.77;2.47;;;9.80;99.90;;;;;;5022668;28;20132;-65
2024/03/29 00:03:12;;;;;;;14.98;2.70;;;9.80;99.90;;;;;;5022314;28;20195;-66
2024/03/29 00:05:37;;;;;;;14.60;2.25;;;9.70;99.90;;;;;;5025663;28;20071;-65
2024/03/29 00:08:04;;;;;;;15.93;2.65;;;9.70;99.90;;;;;;5023983;28;20057;-66
2024/03/29 00:10:30;;;;;;;19.50;4.30;;;9.60;99.90;;;;;;5001325;28;20432;-66
2024/03/29 00:12:55;;;;;;;15.25;3.08;;;9.60;99.90;;;;;;5010514;28;20057;-66
2024/03/29 00:15:21;;;;;;;15.77;2.08;;;9.60;99.90;;;;;;5020848;28;20184;-66
2024/03/29 00:17:47;;;;;;;16.65;2.60;;;9.60;99.90;;;;;;5027425;28;20853;-66
2024/03/29 00:20:13;;;;;;;20.67;2.90;;;9.50;99.90;;;;;;5019410;28;20052;-66
2024/03/29 00:22:39;;;;;;;16.42;2.45;;;9.50;99.90;;;;;;5008166;28;20057;-67
2024/03/29 00:25:05;;;;;;;14.48;2.00;;;9.40;99.90;;;;;;5021511;28;20048;-67
2024/03/29 00:27:32;;;;;;;17.88;3.03;;;9.40;99.90;;;;;;5025045;28;20053;-66
2024/03/29 00:29:58;;;;;;;19.30;3.30;;;9.40;99.90;;;;;;5007939;28;20049;-66
2024/03/29 00:32:24;;;;;;;13.45;2.90;;;9.40;99.90;;;;;;5044458;28;20083;-67
2024/03/29 00:34:51;;;;;;;16.17;2.20;;;9.40;99.90;;;;;;5007501;28;20425;-67
2024/03/29 00:37:17;;;;;;;14.57;2.22;;;9.40;99.90;;;;;;5006207;28;20065;-67
2024/03/29 00:39:43;;;;;;;23.42;4.55;;;9.40;99.90;;;;;;5015761;28;20037;-66
2024/03/29 00:42:09;;;;;;;14.48;2.17;;;9.30;99.90;;;;;;5023349;28;20459;-67
2024/03/29 00:44:37;;;;;;;20.67;4.10;;;9.30;99.90;;;;;;5023704;28;20053;-67
2024/03/29 00:47:07;;;;;;;21.33;2.97;;;9.30;99.90;;;;;;5020158;28;20040;-67
2024/03/29 00:49:33;;;;;;;9.75;1.40;;;9.20;99.90;;;;;;5021929;28;20412;-66
2024/03/29 00:52:00;;;;;;;22.13;3.10;;;9.20;99.90;;;;;;5021082;28;20045;-66
2024/03/29 00:54:26;;;;;;;11.00;2.05;;;9.20;99.90;;;;;;5018880;28;20053;-66
2024/03/29 00:56:52;;;;;;;14.73;2.42;;;9.10;99.90;;;;;;5018949;28;20075;-68
2024/03/29 00:59:21;;;;;;;13.20;2.00;;;9.10;99.90;;;;;;5026596;28;20442;-67
2024/03/29 01:01:50;;;;;;;11.07;2.00;;;9.10;99.90;;;;;;5010245;28;20075;-66
2024/03/29 01:04:16;;;;;;;10.80;2.17;;;9.10;99.90;;;;;;5022903;28;20041;-66
2024/03/29 01:06:42;;;;;;;9.85;1.63;;;9.00;99.90;;;;;;5022904;28;20053;-66
2024/03/29 01:09:11;;;;;;;16.15;2.10;;;9.00;99.90;;;;;;5023819;28;20049;-65
2024/03/29 01:11:40;;;;;;;19.00;2.08;;;9.00;99.90;;;;;;5020564;28;20056;-66
2024/03/29 01:14:06;;;;;;;12.43;2.45;;;9.00;99.90;;;;;;5024524;28;20049;-65
2024/03/29 01:16:32;;;;;;;12.73;2.03;;;9.10;99.90;;;;;;5021881;28;20049;-65
2024/03/29 01:18:58;;;;;;;8.38;1.73;;;9.10;99.90;;;;;;5023922;28;20466;-66
2024/03/29 01:21:24;;;;;;;11.75;1.73;;;9.10;99.90;;;;;;5022221;28;20613;-66
2024/03/29 01:23:50;;;;;;;17.60;3.22;;;9.10;99.90;;;;;;4984384;28;20484;-66
2024/03/29 01:26:17;;;;;;;16.20;2.20;;;9.10;99.90;;;;;;5025201;28;20049;-66
2024/03/29 01:28:43;;;;;;;14.00;2.30;;;9.10;99.90;;;;;;5026222;28;20500;-66
2024/03/29 01:31:09;;;;;;;10.40;2.15;;;9.10;99.90;;;;;;4991411;28;20057;-66
2024/03/29 01:33:37;;;;;;;13.40;3.38;;;9.00;99.90;;;;;;5023976;28;20045;-66
2024/03/29 01:36:07;;;;;;;12.32;2.33;;;9.00;99.90;;;;;;5025101;28;20091;-66
2024/03/29 01:38:33;;;;;;;11.30;2.30;;;9.00;99.90;;;;;;5022795;28;20060;-66
2024/03/29 01:40:58;;;;;;;8.32;1.38;;;8.90;99.90;;;;;;5025311;28;20056;-66
2024/03/29 01:43:24;;;;;;;11.30;2.08;;;8.90;99.90;;;;;;5022709;28;20052;-66
2024/03/29 01:45:52;;;;;;;12.18;1.50;;;8.90;99.90;;;;;;5026506;28;20064;-66
2024/03/29 01:48:18;;;;;;;14.70;3.25;;;8.90;99.90;;;;;;5021227;28;20123;-65
2024/03/29 01:50:44;;;;;;;9.73;2.05;;;8.90;99.90;;;;;;5007576;28;20088;-66
2024/03/29 01:53:09;;;;;;;9.35;1.90;;;8.90;99.90;;;;;;5010497;28;20353;-65
2024/03/29 01:55:35;;;;;;;9.38;2.42;;;9.00;99.90;;;;;;5008377;28;20063;-66
2024/03/29 01:58:01;;;;;;;6.30;2.63;;;9.00;99.90;;;;;;5006734;28;20050;-66
2024/03/29 02:00:28;;;;;;;11.55;1.95;;;9.00;99.90;;;;;;4992144;28;20079;-67
2024/03/29 02:02:54;;;;;;;9.65;1.92;;;9.00;99.90;;;;;;5026995;28;20419;-66
2024/03/29 02:05:20;;;;;;;12.88;2.45;;;9.00;99.90;;;;;;5025290;28;20408;-66
2024/03/29 02:07:47;;;;;;;12.05;2.10;;;9.00;99.90;;;;;;5027045;28;20055;-66
2024/03/29 02:10:14;;;;;;;11.15;2.10;;;9.00;99.90;;;;;;5010149;28;20052;-66
2024/03/29 02:12:40;;;;;;;16.20;1.77;;;9.10;99.90;;;;;;5021278;28;20428;-66
2024/03/29 02:15:06;;;;;;;8.90;1.60;;;9.00;99.90;;;;;;5027709;28;20053;-66
2024/03/29 02:17:32;;;;;;;6.15;1.35;;;8.90;99.90;;;;;;5028688;28;20061;-66
2024/03/29 02:19:58;;;;;;;13.98;1.55;;;8.90;99.90;;;;;;5026341;28;20433;-66
2024/03/29 02:22:24;;;;;;;7.80;1.50;;;8.90;99.90;;;;;;5003941;28;20076;-66
2024/03/29 02:24:51;;;;;;;5.90;1.42;;;9.00;99.90;;;;;;5022905;28;20499;-66
2024/03/29 02:27:17;;;;;;;6.35;1.30;;;8.90;99.90;;;;;;5008214;28;20056;-66
2024/03/29 02:29:43;;;;;;;9.32;1.60;;;9.00;99.90;;;;;;5021673;28;20373;-67
2024/03/29 02:32:08;;;;;;;12.32;2.03;;;9.00;99.90;;;;;;5029076;28;20052;-67
2024/03/29 02:34:34;;;;;;;10.35;1.48;;;9.00;99.90;;;;;;5025674;28;20049;-67
2024/03/29 02:37:01;;;;;;;12.38;1.98;;;9.00;99.90;;;;;;5013094;28;20455;-67
2024/03/29 02:39:27;;;;;;;9.38;2.33;;;9.00;99.90;;;;;;5020489;28;20330;-67
2024/03/29 02:41:53;;;;;;;16.27;2.20;;;8.90;99.90;;;;;;5009968;28;20149;-67
2024/03/29 02:44:19;;;;;;;10.55;2.55;;;8.80;99.90;;;;;;5025937;28;20412;-68
2024/03/29 02:46:44;;;;;;;11.13;2.08;;;8.80;99.90;;;;;;5026868;28;20114;-66
2024/03/29 02:49:10;;;;;;;9.77;1.80;;;8.80;99.90;;;;;;5009790;28;20049;-66
2024/03/29 02:51:36;;;;;;;8.45;2.33;;;8.70;99.90;;;;;;5005508;28;21066;-66
2024/03/29 02:54:02;;;;;;;10.07;1.48;;;8.70;99.90;;;;;;5027268;28;20084;-65
2024/03/29 02:56:28;;;;;;;17.58;2.17;;;8.70;99.90;;;;;;5027413;28;20103;-66
2024/03/29 02:58:55;;;;;;;11.68;1.83;;;8.60;99.90;;;;;;5028956;28;20759;-65
2024/03/29 03:01:20;;;;;;;13.20;2.30;;;8.50;99.90;;;;;;5024131;28;20723;-65
2024/03/29 03:03:46;;;;;;;15.80;1.88;;;8.70;99.90;;;;;;5009071;28;20085;-65
2024/03/29 03:06:12;;;;;;;14.63;2.92;;;8.50;99.90;;;;;;5023990;28;20563;-66
2024/03/29 03:11:22;;;;;;;4.32;1.60;;;8.50;99.90;;;;;;5019780;28;20112;-67
2024/03/29 03:13:48;;;;;;;20.05;2.20;;;8.40;99.90;;;;;;5026866;28;20124;-66
2024/03/29 03:16:14;;;;;;;9.25;1.52;;;8.30;99.90;;;;;;5023817;28;20656;-66
2024/03/29 03:18:40;;;;;;;13.57;3.28;;;8.30;99.90;;;;;;5028119;28;20118;-66
2024/03/29 03:21:05;;;;;;;10.00;1.42;;;8.20;99.90;;;;;;5040077;28;20549;-66
2024/03/29 03:23:31;;;;;;;7.40;1.35;;;8.20;99.90;;;;;;5028637;28;20136;-65
2024/03/29 03:25:58;;;;;;;10.02;1.55;;;8.20;99.90;;;;;;5024983;28;20443;-66
2024/03/29 03:28:24;;;;;;;11.25;1.60;;;8.20;99.90;;;;;;5023424;28;20065;-66
2024/03/29 03:30:50;;;;;;;7.07;1.25;;;8.10;99.90;;;;;;4986222;28;20049;-66
2024/03/29 03:33:16;;;;;;;6.03;1.20;;;8.10;99.90;;;;;;5027137;28;20048;-66
2024/03/29 03:35:42;;;;;;;8.35;1.48;;;8.00;99.90;;;;;;5020333;28;20046;-66
2024/03/29 03:38:08;;;;;;;9.45;2.05;;;8.00;99.90;;;;;;5027220;28;20041;-65
2024/03/29 03:40:35;;;;;;;14.57;1.73;;;7.90;99.90;;;;;;5022331;28;20049;-65
2024/03/29 03:43:02;;;;;;;8.93;1.00;;;7.90;99.90;;;;;;5041230;28;20079;-65
2024/03/29 03:45:28;;;;;;;7.70;1.08;;;7.80;99.90;;;;;;5025968;28;20057;-66
2024/03/29 03:47:54;;;;;;;5.15;0.73;;;7.80;99.90;;;;;;5018518;28;20061;-66
2024/03/29 03:50:19;;;;;;;5.45;1.30;;;7.80;99.90;;;;;;5024444;28;20574;-66
2024/03/29 03:52:46;;;;;;;8.50;1.27;;;7.60;99.90;;;;;;5018009;28;20065;-65
2024/03/29 03:55:11;;;;;;;4.75;1.50;;;7.60;99.90;;;;;;5018710;28;20121;-65
2024/03/29 03:57:37;;;;;;;4.20;1.10;;;7.50;99.90;;;;;;5022975;28;20532;-65
2024/03/29 04:00:04;;;;;;;7.25;1.13;;;7.50;99.90;;;;;;5026006;28;20049;-65
2024/03/29 04:02:29;;;;;;;10.93;1.10;;;7.50;99.90;;;;;;5019054;28;20141;-65
2024/03/29 04:04:55;;;;;;;3.70;1.08;;;7.50;99.90;;;;;;5025047;28;20269;-65
2024/03/29 04:07:21;;;;;;;9.05;1.35;;;7.40;99.90;;;;;;5024041;28;20098;-65
2024/03/29 04:09:50;;;;;;;7.13;1.25;;;7.40;99.90;;;;;;5024974;28;20064;-64
2024/03/29 04:12:16;;;;;;;11.02;1.02;;;7.40;99.90;;;;;;5023329;28;20053;-65
2024/03/29 04:14:42;;;;;;;10.63;1.00;;;7.40;99.90;;;;;;5020429;28;20586;-65
2024/03/29 04:17:08;;;;;;;4.50;1.20;;;7.40;99.90;;;;;;5023006;28;20053;-65
2024/03/29 04:19:34;;;;;;;5.38;1.13;;;7.40;99.90;;;;;;5024173;28;20555;-65
2024/03/29 04:21:59;;;;;;;2.03;0.75;;;7.40;99.90;;;;;;5025505;28;20132;-65
2024/03/29 04:24:25;;;;;;;3.90;0.80;;;7.30;99.90;;;;;;5023561;28;20041;-65
2024/03/29 04:26:51;;;;;;;3.67;0.90;;;7.30;99.90;;;;;;5021055;28;20084;-65
2024/03/29 04:29:17;;;;;;;2.95;0.80;;;7.30;99.90;;;;;;5009564;28;20423;-65
2024/03/29 04:31:47;;;;;;;6.07;0.93;;;7.30;99.90;;;;;;4985442;28;20092;-65
2024/03/29 04:34:13;;;;;;;5.38;0.80;;;7.30;99.90;;;;;;4997537;28;20128;-65
2024/03/29 04:36:39;;;;;;;2.40;1.00;;;7.30;99.90;;;;;;5007439;28;20109;-65
2024/03/29 04:39:05;;;;;;;5.97;0.90;;;7.30;99.90;;;;;;5000263;28;20074;-65
2024/03/29 04:41:34;;;;;;;3.97;1.10;;;7.30;99.90;;;;;;5014991;28;20136;-65
2024/03/29 04:44:04;;;;;;;5.63;2.17;;;7.20;99.90;;;;;;4998312;28;20451;-65
2024/03/29 04:46:30;;;;;;;2.70;0.60;;;7.10;99.90;;;;;;5000712;28;20065;-66
2024/03/29 04:48:56;;;;;;;4.68;0.90;;;7.20;99.90;;;;;;4985873;28;20119;-65
2024/03/29 04:51:22;;;;;;;2.83;0.70;;;7.30;99.90;;;;;;5013264;28;20057;-65
2024/03/29 04:53:48;;;;;;;4.88;0.93;;;7.30;99.90;;;;;;4997243;28;20467;-65
2024/03/29 04:56:13;;;;;;;3.83;0.75;;;7.30;99.90;;;;;;5008844;28;20057;-65
2024/03/29 04:58:39;;;;;;;7.57;1.15;;;7.20;99.90;;;;;;4984465;28;20081;-65
2024/03/29 05:01:05;;;;;;;6.72;1.00;;;7.30;99.90;;;;;;4988551;28;20050;-65
2024/03/29 05:03:31;;;;;;;10.77;1.33;;;7.20;99.90;;;;;;4999795;28;20111;-66
2024/03/29 05:05:57;;;;;;;14.80;4.10;;;7.30;99.90;;;;;;5001265;28;20125;-65
2024/03/29 05:08:23;;;;;;;12.93;2.03;;;7.30;99.90;;;;;;5000414;28;20049;-68
2024/03/29 05:10:50;;;;;;;10.35;1.73;;;7.30;99.90;;;;;;4996836;28;20140;-65
2024/03/29 05:13:16;;;;;;;10.45;1.48;;;7.30;99.90;;;;;;5018890;28;20519;-65
2024/03/29 05:15:42;;;;;;;20.65;2.58;;;7.40;99.90;;;;;;4996115;28;20129;-65
2024/03/29 05:18:08;;;;;;;13.77;1.52;;;7.30;99.90;;;;;;4997631;28;20112;-66
2024/03/29 05:20:34;;;;;;;19.73;2.95;;;7.40;99.90;;;;;;5000196;28;20129;-65
2024/03/29 05:23:00;;;;;;;20.40;1.92;;;7.40;99.90;;;;;;5001969;28;20046;-65
2024/03/29 05:25:26;;;;;;;15.60;2.78;;;7.50;99.90;;;;;;4984537;28;20133;-65
2024/03/29 05:27:52;;;;;;;11.90;1.88;;;7.50;99.90;;;;;;4983861;28;20125;-65
2024/03/29 05:30:18;;;;;;;10.95;1.63;;;7.50;99.90;;;;;;5002468;28;20133;-65
2024/03/29 05:32:44;;;;;;;22.45;3.50;;;7.50;99.90;;;;;;5001827;28;20053;-65
2024/03/29 05:35:10;;;;;;;6.18;1.77;;;7.50;99.90;;;;;;4997790;28;20046;-65
2024/03/29 05:37:36;;;;;;;6.47;1.63;;;7.50;99.90;;;;;;4992745;28;20107;-65
2024/03/29 05:40:04;;;;;;;13.85;1.85;;;7.50;99.90;;;;;;4987471;28;20064;-65
2024/03/29 05:42:31;;;;;;;17.33;2.15;;;7.60;99.90;;;;;;5007220;28;20497;-65
2024/03/29 05:44:57;;;;;;;17.75;2.75;;;7.60;99.90;;;;;;5002710;28;20536;-65
2024/03/29 05:47:23;;;;;;;9.80;1.95;;;7.60;99.90;;;;;;5002816;28;20050;-65
2024/03/29 05:49:48;;;;;;;14.02;2.05;;;7.60;99.90;;;;;;4988002;28;20100;-65
2024/03/29 05:52:15;;;;;;;12.95;4.70;;;7.70;99.90;;;;;;5004398;28;20199;-66
2024/03/29 05:54:42;;;;;;;19.40;2.25;;;7.70;99.90;;;;;;5008553;28;20042;-66
2024/03/29 05:57:08;;;;;;;15.38;3.47;;;7.70;99.90;;;;;;4994024;28;20054;-65
2024/03/29 05:59:34;;;;;;;7.05;1.65;;;7.70;99.90;;;;;;5002083;28;20153;-65
2024/03/29 06:02:00;;;;;;;11.05;1.70;;;7.70;99.90;;;;;;5000666;28;20080;-67
2024/03/29 06:04:37;;;;;;;18.30;2.70;;;7.70;99.90;;;;;;5010668;28;20433;-65
2024/03/29 06:07:03;;;;;;;20.95;2.58;;;7.70;99.90;;;;;;4983396;28;20057;-66
2024/03/29 06:09:29;;;;;;;14.15;2.10;;;7.70;99.90;;;;;;4989273;28;20054;-65
2024/03/29 06:11:55;;;;;;;15.55;1.60;;;7.70;99.90;;;;;;4992916;28;20050;-65
2024/03/29 06:17:22;;;;;;;11.25;2.13;;;7.80;99.90;;;;;;4988676;28;20080;-65
2024/03/29 06:19:50;;;;;;;12.18;1.50;;;7.80;99.90;;;;;;5002757;28;20065;-65
2024/03/29 06:22:17;;;;;;;11.32;1.73;;;7.80;99.90;;;;;;4996618;28;20077;-65
2024/03/29 06:24:44;;;;;;;10.88;2.20;;;7.90;99.90;;;;;;5007210;28;20061;-65
2024/03/29 06:27:10;;;;;;;5.85;1.08;;;7.90;99.90;;;;;;5001189;28;20045;-66
2024/03/29 06:29:36;;;;;;;8.45;1.50;;;7.90;99.90;;;;;;5003511;28;20054;-66
2024/03/29 06:32:02;;;;;;;19.85;2.63;;;7.90;99.90;;;;;;4999260;28;20062;-66
2024/03/29 06:34:31;;;;;;;14.77;1.67;;;7.90;99.90;;;;;;5003053;28;20059;-66
2024/03/29 06:36:57;;;;;;;12.10;4.03;;;7.90;99.90;;;;;;5000614;28;20066;-66
2024/03/29 06:39:23;;;;;;;14.43;3.00;;;8.00;99.90;;;;;;5004064;28;20054;-66
2024/03/29 06:41:49;;;;;;;13.85;2.13;;;8.00;99.90;;;;;;5003292;28;20057;-66
2024/03/29 06:44:15;;;;;;;8.35;1.88;;;8.00;99.90;;;;;;5004523;28;20054;-66
2024/03/29 06:46:40;;;;;;;13.68;2.00;;;8.00;99.90;;;;;;4999866;28;20050;-66
2024/03/29 06:49:06;;;;;;;11.60;1.58;;;8.10;99.90;;;;;;4999495;28;20443;-66
2024/03/29 06:51:32;;;;;;;11.27;2.00;;;8.10;99.90;;;;;;5002414;28;20058;-66
2024/03/29 06:53:58;;;;;;;10.95;2.28;;;8.20;99.90;;;;;;4996599;28;20147;-65
2024/03/29 06:56:24;;;;;;;14.20;4.00;;;8.20;99.90;;;;;;5011650;28;20057;-66
2024/03/29 06:58:50;;;;;;;4.35;1.10;;;8.20;99.90;;;;;;4999374;28;20120;-65
2024/03/29 07:01:16;;;;;;;12.63;1.65;;;8.20;99.90;;;;;;4999628;28;20512;-65
2024/03/29 07:03:41;;;;;;;9.57;1.85;;;8.20;99.90;;;;;;5003021;28;20066;-66
2024/03/29 07:06:07;;;;;;;7.30;1.42;;;8.20;99.90;;;;;;4995507;28;20084;-66
2024/03/29 07:08:33;;;;;;;21.77;5.82;;;8.20;99.90;;;;;;5002496;28;20144;-66
2024/03/29 07:11:00;;;;;;;5.18;2.03;;;8.30;99.90;;;;;;5002910;28;20132;-66
2024/03/29 07:13:27;;;;;;;14.70;1.73;;;8.30;99.90;;;;;;4999671;28;20053;-66
2024/03/29 07:15:53;;;;;;;16.05;2.10;;;8.40;99.90;;;;;;5001831;28;20058;-66
2024/03/29 07:18:18;;;;;;;11.32;1.42;;;8.50;99.90;;;;;;5000505;28;20120;-66
2024/03/29 07:20:44;;;;;;;11.90;2.08;;;8.50;99.90;;;;;;4997838;28;20140;-66
2024/03/29 07:23:14;;;;;;;11.50;1.52;;;8.50;99.90;;;;;;5002713;28;20088;-67
2024/03/29 07:25:40;;;;;;;15.38;2.15;;;8.50;99.90;;;;;;5002291;28;20053;-66
2024/03/29 07:28:06;;;;;;;8.38;1.60;;;8.60;99.90;;;;;;4998934;28;20057;-66
2024/03/29 07:30:32;;;;;;;12.35;2.30;;;8.60;99.90;;;;;;5017318;28;20157;-66
2024/03/29 07:32:58;;;;;;;7.88;2.15;;;8.60;99.90;;;;;;5020342;28;20053;-66
2024/03/29 07:35:23;;;;;;;6.30;1.02;;;8.60;99.90;;;;;;5004170;28;20136;-66
2024/03/29 07:37:51;;;;;;;5.85;1.52;;;8.70;99.90;;;;;;5022931;28;20501;-65
2024/03/29 07:40:16;;;;;;;9.80;2.05;;;8.70;99.90;;;;;;5016868;28;20056;-65
2024/03/29 07:42:42;;;;;;;11.40;1.80;;;8.70;99.90;;;;;;5003906;28;20056;-66
2024/03/29 07:45:08;;;;;;;8.65;1.45;;;8.80;99.90;;;;;;5019157;28;20152;-66
2024/03/29 07:47:34;;;;;;;10.88;1.52;;;8.80;99.90;;;;;;5023759;28;20041;-66
2024/03/29 07:50:00;;;;;;;12.15;1.55;;;8.90;99.90;;;;;;5019280;28;20247;-66
2024/03/29 07:52:26;;;;;;;10.52;1.88;;;9.00;99.90;;;;;;5024347;28;20395;-67
2024/03/29 07:54:52;;;;;;;11.30;2.08;;;9.10;99.90;;;;;;5020452;28;20048;-66
2024/03/29 07:57:17;;;;;;;8.18;1.50;;;9.10;99.90;;;;;;5020280;28;20057;-67
2024/03/29 07:59:43;;;;;;;11.82;1.83;;;9.20;99.90;;;;;;5019009;28;20149;-66
2024/03/29 08:02:09;;;;;;;7.50;1.40;;;9.30;99.90;;;;;;5022517;28;20393;-66
2024/03/29 08:04:35;;;;;;;7.40;1.40;;;9.40;99.90;;;;;;5023748;28;20171;-67
2024/03/29 08:07:00;;;;;;;5.18;2.13;;;9.40;99.90;;;;;;5023550;28;20067;-67
2024/03/29 08:09:26;;;;;;;9.00;1.77;;;9.40;99.90;;;;;;5024800;28;20053;-68
2024/03/29 08:11:55;;;;;;;9.85;1.38;;;9.50;99.90;;;;;;5020841;28;20495;-67
2024/03/29 08:14:20;;;;;;;13.57;2.20;;;9.50;99.90;;;;;;5021041;28;20045;-67
2024/03/29 08:16:46;;;;;;;16.00;2.15;;;9.60;99.90;;;;;;5021421;28;20048;-67
2024/03/29 08:19:12;;;;;;;14.88;1.80;;;9.60;99.90;;;;;;5023335;28;20056;-68
2024/03/29 08:21:38;;;;;;;9.55;1.20;;;9.60;99.90;;;;;;5021652;28;20061;-68
2024/03/29 08:24:04;;;;;;;11.85;1.90;;;9.70;99.90;;;;;;5020727;28;20649;-67
2024/03/29 08:26:30;;;;;;;11.55;1.45;;;9.70;99.90;;;;;;5017357;28;20193;-68
2024/03/29 08:28:56;;;;;;;12.63;1.80;;;9.70;99.90;;;;;;5021497;28;20491;-67
2024/03/29 08:31:23;;;;;;;5.80;1.40;;;9.80;99.90;;;;;;5024783;28;20045;-67
2024/03/29 08:33:49;;;;;;;11.38;1.30;;;9.90;99.90;;;;;;5008056;28;20057;-67
2024/03/29 08:36:15;;;;;;;8.98;1.60;;;10.00;99.90;;;;;;5023617;28;20891;-66
2024/03/29 08:38:43;;;;;;;8.43;1.42;;;10.20;99.90;;;;;;5024229;28;20703;-68
2024/03/29 08:41:09;;;;;;;9.38;1.58;;;10.20;99.90;;;;;;5019330;28;20382;-66
2024/03/29 08:43:35;;;;;;;7.70;1.77;;;10.20;99.90;;;;;;5026649;28;20056;-67
2024/03/29 08:46:01;;;;;;;7.03;1.45;;;10.10;99.90;;;;;;5014081;28;20052;-67
2024/03/29 08:48:27;;;;;;;16.13;1.58;;;10.10;99.90;;;;;;5018269;28;20045;-67
2024/03/29 08:50:53;;;;;;;9.23;1.33;;;10.10;99.90;;;;;;5017208;28;20060;-66
2024/03/29 08:53:19;;;;;;;9.57;1.35;;;10.00;99.90;;;;;;5005826;28;20049;-67
2024/03/29 08:55:46;;;;;;;10.77;1.50;;;10.00;99.90;;;;;;5017027;28;20084;-66
2024/03/29 08:58:12;;;;;;;7.70;1.60;;;10.10;99.90;;;;;;5016945;28;20080;-66
2024/03/29 09:00:38;;;;;;;8.90;4.65;;;10.10;99.90;;;;;;5016786;28;20084;-66
2024/03/29 09:03:04;;;;;;;12.05;1.45;;;10.10;99.90;;;;;;5019685;28;20127;-66
2024/03/29 09:05:30;;;;;;;7.40;1.60;;;10.10;99.90;;;;;;5003519;28;20672;-66
2024/03/29 09:07:56;;;;;;;6.28;0.70;;;10.20;99.90;;;;;;5016390;28;20087;-66
2024/03/29 09:10:26;;;;;;;6.85;1.73;;;10.30;99.90;;;;;;5002509;28;20064;-66
2024/03/29 09:12:52;;;;;;;9.40;2.03;;;10.40;99.90;;;;;;4999894;28;20079;-66
2024/03/29 09:15:18;;;;;;;12.13;2.25;;;10.30;99.90;;;;;;5006400;28;20045;-66
2024/03/29 09:17:44;;;;;;;11.38;1.33;;;10.20;99.90;;;;;;5007307;28;20095;-66
2024/03/29 09:20:11;;;;;;;7.63;1.42;;;10.20;99.90;;;;;;4992521;28;20155;-66
2024/03/29 09:22:37;;;;;;;5.78;1.33;;;10.10;99.90;;;;;;5005483;28;20745;-66
2024/03/29 09:25:04;;;;;;;8.20;1.13;;;10.00;99.90;;;;;;5014536;28;20048;-65
2024/03/29 09:27:30;;;;;;;4.93;1.25;;;10.00;99.90;;;;;;5017108;28;20049;-66
2024/03/29 09:29:58;;;;;;;3.42;1.17;;;10.00;99.90;;;;;;5019126;28;20128;-66
2024/03/29 09:32:24;;;;;;;5.05;1.10;;;10.00;99.90;;;;;;5019787;28;20060;-65
2024/03/29 09:34:50;;;;;;;3.40;0.80;;;10.00;99.90;;;;;;5016322;28;20053;-65
2024/03/29 09:37:17;;;;;;;4.20;1.08;;;10.00;99.90;;;;;;5003885;28;20085;-65
2024/03/29 09:39:43;;;;;;;11.25;1.13;;;10.00;99.90;;;;;;5014034;28;20054;-66
2024/03/29 09:42:09;;;;;;;10.50;1.20;;;10.00;99.90;;;;;;5020053;28;20419;-65
2024/03/29 09:44:36;;;;;;;7.32;1.65;;;10.00;99.90;;;;;;5021621;28;20057;-65
2024/03/29 09:47:08;;;;;;;4.75;0.80;;;9.90;99.90;;;;;;5013196;28;20059;-66
2024/03/29 09:49:34;;;;;;;2.17;0.82;;;10.00;99.90;;;;;;5001916;28;20037;-65
2024/03/29 09:52:00;;;;;;;6.10;1.02;;;10.00;99.90;;;;;;5005764;28;20053;-67
2024/03/29 09:54:29;;;;;;;2.90;0.80;;;10.10;99.90;;;;;;5021325;28;20103;-68
2024/03/29 09:56:56;;;;;;;7.68;1.10;;;10.10;99.90;;;;;;4997750;28;20634;-67
2024/03/29 09:59:23;;;;;;;3.47;1.02;;;10.20;99.90;;;;;;5006207;28;20049;-66
2024/03/29 10:01:49;;;;;;;3.60;0.85;;;10.20;99.90;;;;;;5021729;28;20095;-66
2024/03/29 10:04:15;;;;;;;4.00;0.98;;;10.30;99.90;;;;;;4980038;28;20048;-67
2024/03/29 10:06:43;;;;;;;9.05;0.80;;;10.50;99.90;;;;;;5011958;28;20071;-66
2024/03/29 10:09:10;;;;;;;5.68;0.73;;;10.60;99.90;;;;;;4995850;28;20049;-67
2024/03/29 10:11:36;;;;;;;4.63;1.15;;;10.60;99.90;;;;;;4971351;28;20463;-67
2024/03/29 10:14:03;;;;;;;3.15;0.60;;;10.80;99.90;;;;;;5017163;28;20045;-67
2024/03/29 10:16:30;;;;;;;4.38;0.60;;;10.80;99.90;;;;;;5016299;28;20048;-68
2024/03/29 10:18:58;;;;;;;5.50;1.00;;;10.90;99.90;;;;;;4998036;28;20050;-67
2024/03/29 10:21:26;;;;;;;6.65;0.88;;;10.80;99.90;;;;;;5016897;28;20075;-67
2024/03/29 10:23:52;;;;;;;11.80;1.10;;;10.80;99.90;;;;;;5015700;28;20052;-68
2024/03/29 10:26:18;;;;;;;13.50;1.75;;;10.80;99.90;;;;;;5024867;28;20053;-68
2024/03/29 10:28:43;;;;;;;6.97;1.23;;;10.80;99.90;;;;;;5023314;28;20057;-68
2024/03/29 10:31:11;;;;;;;6.45;1.20;;;11.00;99.90;;;;;;5002491;28;20049;-67
2024/03/29 10:33:37;;;;;;;5.30;0.93;;;11.10;99.90;;;;;;5022706;28;20057;-67
2024/03/29 10:36:04;;;;;;;7.35;1.65;;;11.20;99.90;;;;;;5020020;28;20063;-67
2024/03/29 10:38:30;;;;;;;12.45;3.47;;;11.30;99.90;;;;;;5025817;28;20068;-68
2024/03/29 10:40:56;;;;;;;8.32;1.88;;;11.40;99.90;;;;;;5025320;28;20064;-64
2024/03/29 10:43:22;;;;;;;10.55;1.48;;;11.40;99.90;;;;;;4972465;28;20084;-66
2024/03/29 10:45:49;;;;;;;14.07;1.83;;;11.40;99.90;;;;;;5004065;28;20057;-67
2024/03/29 10:48:15;;;;;;;14.93;2.20;;;11.50;99.90;;;;;;5009447;28;20058;-68
2024/03/29 10:50:42;;;;;;;19.42;2.63;;;11.40;99.90;;;;;;5040177;28;20732;-67
2024/03/29 10:53:09;;;;;;;11.35;2.45;;;11.40;99.90;;;;;;5027239;28;20045;-67
2024/03/29 10:55:35;;;;;;;13.65;2.20;;;11.50;99.90;;;;;;4986673;28;20387;-67
2024/03/29 10:58:01;;;;;;;20.27;2.42;;;11.70;99.90;;;;;;5023102;28;20053;-66
2024/03/29 11:00:47;;;;;;;12.80;2.55;;;11.70;99.90;;;;;;5022002;28;20538;-66
2024/03/29 11:03:15;;;;;;;15.18;2.53;;;11.80;99.90;;;;;;5021441;28;20179;-66
2024/03/29 11:05:52;;;;;;;17.70;2.50;;;11.90;99.90;;;;;;5024310;28;20045;-65
2024/03/29 11:08:26;;;;;;;17.17;3.63;;;12.00;99.90;;;;;;5013226;28;20156;-65
2024/03/29 11:10:53;;;;;;;10.50;1.83;;;12.10;99.90;;;;;;5021428;28;20053;-66
2024/03/29 11:13:24;;;;;;;12.13;2.33;;;12.00;99.90;;;;;;4991167;28;20049;-66
2024/03/29 11:15:50;;;;;;;14.15;2.03;;;12.00;99.90;;;;;;5037002;28;20080;-67
2024/03/29 11:18:18;;;;;;;17.25;2.55;;;12.00;99.90;;;;;;4984832;28;20064;-66
2024/03/29 11:20:51;;;;;;;10.23;2.33;;;11.90;99.90;;;;;;5025169;28;20053;-67
2024/03/29 11:23:20;;;;;;;4.90;1.60;;;11.80;99.90;;;;;;5012571;28;20053;-66
2024/03/29 11:25:50;;;;;;;14.82;2.63;;;11.80;99.90;;;;;;5007843;28;20053;-66
2024/03/29 11:28:23;;;;;;;6.95;1.50;;;12.00;99.90;;;;;;5021908;28;20068;-66
2024/03/29 11:30:50;;;;;;;13.35;1.95;;;12.10;99.90;;;;;;5029251;28;20045;-66
2024/03/29 11:33:26;;;;;;;15.15;2.75;;;12.00;99.90;;;;;;5024081;28;20049;-67
2024/03/29 11:35:52;;;;;;;9.48;2.08;;;12.10;99.90;;;;;;5026488;28;20053;-66
2024/03/29 11:38:18;;;;;;;11.35;2.00;;;12.00;99.90;;;;;;5024489;28;20515;-66
2024/03/29 11:41:03;;;;;;;11.23;1.92;;;12.00;99.90;;;;;;5027863;28;20045;-66
2024/03/29 11:43:31;;;;;;;11.13;2.17;;;12.00;99.90;;;;;;5024144;28;20053;-65
2024/03/29 11:45:58;;;;;;;9.82;1.67;;;12.10;99.90;;;;;;4996998;28;20079;-66
2024/03/29 11:48:26;;;;;;;12.85;1.88;;;12.40;99.90;;;;;;5022555;28;20061;-64
2024/03/29 11:50:52;;;;;;;8.80;1.77;;;12.50;99.90;;;;;;5001071;28;20140;-67
2024/03/29 11:53:19;;;;;;;8.77;1.83;;;12.80;99.90;;;;;;5020179;28;20056;-65
2024/03/29 11:55:48;;;;;;;15.88;3.20;;;12.80;99.90;;;;;;5006476;28;20053;-66
2024/03/29 11:58:15;;;;;;;5.00;1.58;;;12.80;99.90;;;;;;5006361;28;20056;-67
2024/03/29 12:00:44;;;;;;;9.38;1.58;;;12.80;99.90;;;;;;5020741;28;20649;-67
2024/03/29 12:03:10;;;;;;;7.78;2.28;;;12.90;99.90;;;;;;5006359;28;20053;-65
2024/03/29 12:05:36;;;;;;;10.43;1.83;;;12.90;99.90;;;;;;5006289;28;20056;-65
2024/03/29 12:08:02;;;;;;;7.55;1.60;;;12.90;99.90;;;;;;5019041;28;20080;-67
2024/03/29 12:10:28;;;;;;;10.38;1.60;;;12.80;99.90;;;;;;5001275;28;20106;-67
2024/03/29 12:12:57;;;;;;;9.95;2.03;;;12.80;99.90;;;;;;5017863;28;20041;-66
2024/03/29 12:15:27;;;;;;;7.30;1.23;;;12.60;99.90;;;;;;5024880;28;20053;-67
2024/03/29 12:17:57;;;;;;;9.93;2.10;;;12.50;99.90;;;;;;5018860;28;20045;-67
2024/03/29 12:20:23;;;;;;;9.10;1.77;;;12.60;99.90;;;;;;5019406;28;20409;-65
2024/03/29 12:22:49;;;;;;;8.05;1.63;;;12.70;99.90;;;;;;5020253;28;20084;-66
2024/03/29 12:25:15;;;;;;;10.27;1.88;;;12.70;99.90;;;;;;5016126;28;20067;-65
2024/03/29 12:27:46;;;;;;;10.83;1.60;;;12.70;99.90;;;;;;4659077;28;10000708;-65
2024/03/29 12:30:12;;;;;;;6.93;1.42;;;12.80;99.90;;;;;;5018738;28;20064;-65
2024/03/29 12:32:38;;;;;;;8.30;1.63;;;12.70;99.90;;;;;;5017388;28;20569;-65
2024/03/29 12:35:11;;;;;;;8.20;1.40;;;12.70;99.90;;;;;;5016415;28;20049;-67
2024/03/29 12:37:37;;;;;;;14.50;1.90;;;12.80;99.90;;;;;;5004706;28;20056;-65
2024/03/29 12:40:15;;;;;;;5.72;0.95;;;13.00;99.90;;;;;;5008834;28;20503;-65
2024/03/29 12:42:41;;;;;;;21.63;2.00;;;13.10;99.90;;;;;;5018691;28;20102;-66
2024/03/29 12:45:08;;;;;;;14.50;1.95;;;13.20;99.90;;;;;;5018295;28;20049;-65
2024/03/29 12:47:35;;;;;;;5.90;1.23;;;13.10;99.90;;;;;;5020494;28;20048;-66
2024/03/29 12:50:01;;;;;;;3.47;1.27;;;13.10;99.90;;;;;;5017932;28;20045;-66